sensor_id;sensor_type;location;lat;lon;timestamp;pressure;altitude;pressure_sealevel;temperature;humidity
78800;BME280;68148;55.328;86.106;2023-07-16T00:00:27;98369.59;;;20.64;57.86
78800;BME280;68148;55.328;86.106;2023-07-16T00:02:52;98367.50;;;20.85;59.16
78800;BME280;68148;55.328;86.106;2023-07-16T00:05:18;98366.34;;;20.91;59.03
78800;BME280;68148;55.328;86.106;2023-07-16T00:07:44;98364.72;;;21.14;57.63
78800;BME280;68148;55.328;86.106;2023-07-16T00:10:11;98360.97;;;21.53;56.66
78800;BME280;68148;55.328;86.106;2023-07-16T00:12:37;98358.34;;;21.66;57.13
78800;BME280;68148;55.328;86.106;2023-07-16T00:15:03;98353.97;;;21.89;56.02
78800;BME280;68148;55.328;86.106;2023-07-16T00:17:29;98359.00;;;21.58;55.29
78800;BME280;68148;55.328;86.106;2023-07-16T00:19:55;98366.63;;;21.70;55.73
78800;BME280;68148;55.328;86.106;2023-07-16T00:22:21;98354.50;;;21.16;56.03
78800;BME280;68148;55.328;86.106;2023-07-16T00:24:48;98358.94;;;20.83;57.21
78800;BME280;68148;55.328;86.106;2023-07-16T00:27:14;98354.00;;;20.42;58.58
78800;BME280;68148;55.328;86.106;2023-07-16T00:29:40;98365.78;;;20.17;58.87
78800;BME280;68148;55.328;86.106;2023-07-16T00:32:06;98363.66;;;19.85;60.36
78800;BME280;68148;55.328;86.106;2023-07-16T00:34:32;98362.16;;;19.68;61.14
78800;BME280;68148;55.328;86.106;2023-07-16T00:36:59;98361.69;;;19.61;61.25
78800;BME280;68148;55.328;86.106;2023-07-16T00:39:25;98355.28;;;19.62;61.28
78800;BME280;68148;55.328;86.106;2023-07-16T00:41:50;98360.06;;;19.60;61.46
78800;BME280;68148;55.328;86.106;2023-07-16T00:44:16;98361.69;;;19.61;61.79
78800;BME280;68148;55.328;86.106;2023-07-16T00:46:42;98360.03;;;19.70;61.52
78800;BME280;68148;55.328;86.106;2023-07-16T00:49:08;98362.66;;;19.75;61.41
78800;BME280;68148;55.328;86.106;2023-07-16T00:51:34;98356.28;;;19.71;61.70
78800;BME280;68148;55.328;86.106;2023-07-16T00:54:01;98352.66;;;19.86;61.65
78800;BME280;68148;55.328;86.106;2023-07-16T00:56:27;98361.09;;;19.69;62.41
78800;BME280;68148;55.328;86.106;2023-07-16T00:58:54;98354.03;;;19.84;61.86
78800;BME280;68148;55.328;86.106;2023-07-16T01:01:20;98353.78;;;19.80;61.91
78800;BME280;68148;55.328;86.106;2023-07-16T01:03:46;98348.69;;;19.84;62.18
78800;BME280;68148;55.328;86.106;2023-07-16T01:06:20;98346.94;;;19.98;62.62
78800;BME280;68148;55.328;86.106;2023-07-16T01:09:03;98354.38;;;20.06;62.45
78800;BME280;68148;55.328;86.106;2023-07-16T01:11:29;98346.19;;;20.21;61.66
78800;BME280;68148;55.328;86.106;2023-07-16T01:13:56;98355.16;;;20.36;61.15
78800;BME280;68148;55.328;86.106;2023-07-16T01:16:25;98357.13;;;20.54;61.07
78800;BME280;68148;55.328;86.106;2023-07-16T01:18:51;98348.69;;;20.66;60.10
78800;BME280;68148;55.328;86.106;2023-07-16T01:21:22;98343.25;;;20.71;60.39
78800;BME280;68148;55.328;86.106;2023-07-16T01:27:26;98346.25;;;20.88;57.70
78800;BME280;68148;55.328;86.106;2023-07-16T01:29:51;98343.47;;;20.98;58.36
78800;BME280;68148;55.328;86.106;2023-07-16T01:32:20;98336.63;;;21.06;58.66
78800;BME280;68148;55.328;86.106;2023-07-16T01:34:47;98340.25;;;21.15;57.98
78800;BME280;68148;55.328;86.106;2023-07-16T01:37:14;98336.22;;;21.18;58.16
78800;BME280;68148;55.328;86.106;2023-07-16T01:39:40;98337.38;;;21.31;57.50
78800;BME280;68148;55.328;86.106;2023-07-16T01:42:06;98340.75;;;21.41;57.65
78800;BME280;68148;55.328;86.106;2023-07-16T01:44:31;98342.25;;;21.47;57.72
78800;BME280;68148;55.328;86.106;2023-07-16T01:47:11;98339.94;;;21.60;57.37
78800;BME280;68148;55.328;86.106;2023-07-16T01:49:38;98334.69;;;21.68;57.85
78800;BME280;68148;55.328;86.106;2023-07-16T01:52:06;98340.41;;;21.81;56.68
78800;BME280;68148;55.328;86.106;2023-07-16T01:54:32;98336.84;;;21.85;57.27
78800;BME280;68148;55.328;86.106;2023-07-16T01:56:58;98344.09;;;21.85;56.04
78800;BME280;68148;55.328;86.106;2023-07-16T01:59:24;98342.56;;;21.79;56.83
78800;BME280;68148;55.328;86.106;2023-07-16T02:01:50;98344.22;;;21.93;56.82
78800;BME280;68148;55.328;86.106;2023-07-16T02:04:16;98332.19;;;22.05;57.30
78800;BME280;68148;55.328;86.106;2023-07-16T02:06:41;98334.41;;;22.03;56.11
78800;BME280;68148;55.328;86.106;2023-07-16T02:09:08;98338.50;;;22.14;55.40
78800;BME280;68148;55.328;86.106;2023-07-16T02:11:34;98345.88;;;22.22;56.07
78800;BME280;68148;55.328;86.106;2023-07-16T02:14:00;98333.66;;;22.30;55.60
78800;BME280;68148;55.328;86.106;2023-07-16T02:16:26;98334.19;;;22.32;55.75
78800;BME280;68148;55.328;86.106;2023-07-16T02:18:52;98335.47;;;22.48;55.85
78800;BME280;68148;55.328;86.106;2023-07-16T02:21:17;98329.38;;;22.56;55.81
78800;BME280;68148;55.328;86.106;2023-07-16T02:23:43;98327.09;;;22.63;54.88
78800;BME280;68148;55.328;86.106;2023-07-16T02:26:09;98321.84;;;22.58;54.78
78800;BME280;68148;55.328;86.106;2023-07-16T02:28:35;98323.22;;;22.56;55.62
78800;BME280;68148;55.328;86.106;2023-07-16T02:31:03;98324.53;;;22.58;55.14
78800;BME280;68148;55.328;86.106;2023-07-16T02:33:29;98325.31;;;22.59;55.32
78800;BME280;68148;55.328;86.106;2023-07-16T02:35:55;98327.81;;;22.55;55.00
78800;BME280;68148;55.328;86.106;2023-07-16T02:38:20;98324.81;;;22.57;55.72
78800;BME280;68148;55.328;86.106;2023-07-16T02:40:47;98325.00;;;22.60;55.43
78800;BME280;68148;55.328;86.106;2023-07-16T02:43:14;98322.03;;;22.62;54.78
78800;BME280;68148;55.328;86.106;2023-07-16T02:45:41;98321.72;;;22.63;55.37
78800;BME280;68148;55.328;86.106;2023-07-16T02:48:07;98322.59;;;22.72;55.29
78800;BME280;68148;55.328;86.106;2023-07-16T02:50:37;98317.22;;;22.72;55.14
78800;BME280;68148;55.328;86.106;2023-07-16T02:53:07;98310.44;;;22.89;54.34
78800;BME280;68148;55.328;86.106;2023-07-16T02:55:34;98311.94;;;23.09;54.54
78800;BME280;68148;55.328;86.106;2023-07-16T02:58:00;98312.44;;;23.33;54.09
78800;BME280;68148;55.328;86.106;2023-07-16T03:00:26;98304.06;;;23.57;53.83
78800;BME280;68148;55.328;86.106;2023-07-16T03:02:53;98310.41;;;23.75;53.16
78800;BME280;68148;55.328;86.106;2023-07-16T03:05:19;98308.69;;;23.79;52.28
78800;BME280;68148;55.328;86.106;2023-07-16T03:07:45;98306.16;;;23.83;52.42
78800;BME280;68148;55.328;86.106;2023-07-16T03:10:10;98300.00;;;23.82;51.97
78800;BME280;68148;55.328;86.106;2023-07-16T03:12:37;98300.16;;;23.86;51.47
78800;BME280;68148;55.328;86.106;2023-07-16T03:15:03;98304.03;;;24.02;51.70
78800;BME280;68148;55.328;86.106;2023-07-16T03:17:29;98298.53;;;24.07;51.34
78800;BME280;68148;55.328;86.106;2023-07-16T03:19:55;98300.47;;;24.15;50.92
78800;BME280;68148;55.328;86.106;2023-07-16T03:22:21;98301.75;;;24.18;50.36
78800;BME280;68148;55.328;86.106;2023-07-16T03:24:47;98305.59;;;24.26;50.31
78800;BME280;68148;55.328;86.106;2023-07-16T03:27:12;98303.19;;;24.15;51.02
78800;BME280;68148;55.328;86.106;2023-07-16T03:29:38;98311.44;;;24.28;50.79
78800;BME280;68148;55.328;86.106;2023-07-16T03:32:06;98305.13;;;24.32;51.34
78800;BME280;68148;55.328;86.106;2023-07-16T03:34:32;98307.16;;;24.27;50.52
78800;BME280;68148;55.328;86.106;2023-07-16T03:36:57;98309.50;;;24.19;51.10
78800;BME280;68148;55.328;86.106;2023-07-16T03:39:23;98303.78;;;24.12;51.01
78800;BME280;68148;55.328;86.106;2023-07-16T03:41:49;98307.59;;;24.11;51.36
78800;BME280;68148;55.328;86.106;2023-07-16T03:44:15;98316.47;;;24.12;51.44
78800;BME280;68148;55.328;86.106;2023-07-16T03:46:41;98309.03;;;24.17;51.13
78800;BME280;68148;55.328;86.106;2023-07-16T03:49:07;98320.22;;;24.33;50.20
78800;BME280;68148;55.328;86.106;2023-07-16T03:51:33;98312.84;;;24.47;50.78
78800;BME280;68148;55.328;86.106;2023-07-16T03:54:05;98312.88;;;24.56;50.94
78800;BME280;68148;55.328;86.106;2023-07-16T03:56:32;98309.25;;;24.69;50.35
78800;BME280;68148;55.328;86.106;2023-07-16T03:58:57;98314.22;;;24.85;51.36
78800;BME280;68148;55.328;86.106;2023-07-16T04:01:23;98313.91;;;24.95;50.28
78800;BME280;68148;55.328;86.106;2023-07-16T04:03:49;98315.03;;;25.03;49.52
78800;BME280;68148;55.328;86.106;2023-07-16T04:06:15;98312.47;;;24.97;50.07
78800;BME280;68148;55.328;86.106;2023-07-16T04:08:41;98313.59;;;25.05;50.22
78800;BME280;68148;55.328;86.106;2023-07-16T04:11:06;98310.00;;;25.18;49.09
78800;BME280;68148;55.328;86.106;2023-07-16T04:13:32;98308.56;;;25.30;49.58
78800;BME280;68148;55.328;86.106;2023-07-16T04:15:58;98307.75;;;25.46;48.26
78800;BME280;68148;55.328;86.106;2023-07-16T04:18:25;98314.91;;;25.42;47.82
78800;BME280;68148;55.328;86.106;2023-07-16T04:20:51;98307.91;;;25.59;48.53
78800;BME280;68148;55.328;86.106;2023-07-16T04:23:18;98312.84;;;25.65;48.15
78800;BME280;68148;55.328;86.106;2023-07-16T04:25:43;98318.53;;;25.90;47.82
78800;BME280;68148;55.328;86.106;2023-07-16T04:28:10;98304.03;;;25.94;47.69
78800;BME280;68148;55.328;86.106;2023-07-16T04:30:36;98306.59;;;25.91;45.64
78800;BME280;68148;55.328;86.106;2023-07-16T04:33:03;98305.66;;;25.95;46.59
78800;BME280;68148;55.328;86.106;2023-07-16T04:35:32;98304.13;;;26.15;45.34
78800;BME280;68148;55.328;86.106;2023-07-16T04:37:59;98304.78;;;26.21;42.96
78800;BME280;68148;55.328;86.106;2023-07-16T04:40:25;98302.84;;;26.21;42.19
78800;BME280;68148;55.328;86.106;2023-07-16T04:42:53;98294.38;;;26.32;42.47
78800;BME280;68148;55.328;86.106;2023-07-16T04:45:18;98302.19;;;26.25;42.92
78800;BME280;68148;55.328;86.106;2023-07-16T04:47:44;98300.53;;;26.41;42.90
78800;BME280;68148;55.328;86.106;2023-07-16T04:50:10;98297.81;;;26.41;41.81
78800;BME280;68148;55.328;86.106;2023-07-16T04:52:37;98301.34;;;26.33;41.10
78800;BME280;68148;55.328;86.106;2023-07-16T04:55:03;98299.13;;;26.35;41.28
78800;BME280;68148;55.328;86.106;2023-07-16T04:57:29;98298.00;;;26.36;41.82
78800;BME280;68148;55.328;86.106;2023-07-16T04:59:56;98300.53;;;26.41;40.98
78800;BME280;68148;55.328;86.106;2023-07-16T05:02:23;98292.84;;;26.60;40.99
78800;BME280;68148;55.328;86.106;2023-07-16T05:04:48;98292.34;;;26.58;40.95
78800;BME280;68148;55.328;86.106;2023-07-16T05:07:14;98289.09;;;26.74;41.17
78800;BME280;68148;55.328;86.106;2023-07-16T05:09:40;98295.44;;;26.78;40.10
78800;BME280;68148;55.328;86.106;2023-07-16T05:12:06;98281.91;;;26.48;40.74
78800;BME280;68148;55.328;86.106;2023-07-16T05:14:43;98291.78;;;26.44;42.25
78800;BME280;68148;55.328;86.106;2023-07-16T05:17:09;98299.56;;;26.45;42.84
78800;BME280;68148;55.328;86.106;2023-07-16T05:19:35;98310.09;;;26.47;42.77
78800;BME280;68148;55.328;86.106;2023-07-16T05:22:00;98305.63;;;26.42;41.34
78800;BME280;68148;55.328;86.106;2023-07-16T05:24:26;98303.22;;;26.41;42.03
78800;BME280;68148;55.328;86.106;2023-07-16T05:26:52;98301.84;;;26.35;42.29
78800;BME280;68148;55.328;86.106;2023-07-16T05:29:18;98305.56;;;26.21;41.78
78800;BME280;68148;55.328;86.106;2023-07-16T05:31:44;98309.09;;;26.13;42.60
78800;BME280;68148;55.328;86.106;2023-07-16T05:34:10;98310.88;;;26.01;43.18
78800;BME280;68148;55.328;86.106;2023-07-16T05:36:35;98314.34;;;26.10;43.00
78800;BME280;68148;55.328;86.106;2023-07-16T05:39:01;98314.13;;;26.23;43.15
78800;BME280;68148;55.328;86.106;2023-07-16T05:41:27;98308.66;;;26.41;42.55
78800;BME280;68148;55.328;86.106;2023-07-16T05:43:53;98310.13;;;26.68;42.30
78800;BME280;68148;55.328;86.106;2023-07-16T05:46:19;98313.34;;;26.91;41.41
78800;BME280;68148;55.328;86.106;2023-07-16T05:48:45;98312.22;;;26.92;40.63
78800;BME280;68148;55.328;86.106;2023-07-16T05:51:10;98313.41;;;27.03;40.85
78800;BME280;68148;55.328;86.106;2023-07-16T05:53:36;98315.00;;;27.04;40.76
78800;BME280;68148;55.328;86.106;2023-07-16T05:56:02;98310.41;;;26.75;42.07
78800;BME280;68148;55.328;86.106;2023-07-16T05:58:28;98316.41;;;26.60;42.20
78800;BME280;68148;55.328;86.106;2023-07-16T06:00:54;98313.25;;;26.49;42.86
78800;BME280;68148;55.328;86.106;2023-07-16T06:03:21;98314.38;;;26.48;43.02
78800;BME280;68148;55.328;86.106;2023-07-16T06:05:47;98313.13;;;26.37;43.25
78800;BME280;68148;55.328;86.106;2023-07-16T06:08:12;98321.88;;;26.42;43.41
78800;BME280;68148;55.328;86.106;2023-07-16T06:10:38;98319.31;;;26.37;42.89
78800;BME280;68148;55.328;86.106;2023-07-16T06:13:04;98317.09;;;26.48;44.15
78800;BME280;68148;55.328;86.106;2023-07-16T06:15:30;98312.94;;;26.42;44.25
78800;BME280;68148;55.328;86.106;2023-07-16T06:17:55;98312.38;;;26.66;44.18
78800;BME280;68148;55.328;86.106;2023-07-16T06:20:21;98310.22;;;26.80;43.60
78800;BME280;68148;55.328;86.106;2023-07-16T06:22:47;98317.97;;;26.90;43.03
78800;BME280;68148;55.328;86.106;2023-07-16T06:25:13;98314.34;;;27.07;43.21
78800;BME280;68148;55.328;86.106;2023-07-16T06:27:38;98312.16;;;27.01;43.20
78800;BME280;68148;55.328;86.106;2023-07-16T06:30:05;98306.59;;;26.97;43.24
78800;BME280;68148;55.328;86.106;2023-07-16T06:32:31;98309.09;;;26.81;43.52
78800;BME280;68148;55.328;86.106;2023-07-16T06:34:57;98303.22;;;26.79;43.72
78800;BME280;68148;55.328;86.106;2023-07-16T06:37:22;98300.56;;;26.70;44.04
78800;BME280;68148;55.328;86.106;2023-07-16T06:39:49;98304.94;;;26.54;44.54
78800;BME280;68148;55.328;86.106;2023-07-16T06:42:14;98314.19;;;26.53;44.08
78800;BME280;68148;55.328;86.106;2023-07-16T06:44:40;98309.91;;;26.43;44.28
78800;BME280;68148;55.328;86.106;2023-07-16T06:47:06;98304.03;;;26.41;45.07
78800;BME280;68148;55.328;86.106;2023-07-16T06:49:32;98299.06;;;26.52;44.40
78800;BME280;68148;55.328;86.106;2023-07-16T06:51:59;98296.69;;;26.51;44.00
78800;BME280;68148;55.328;86.106;2023-07-16T06:54:25;98292.59;;;26.36;43.96
78800;BME280;68148;55.328;86.106;2023-07-16T06:56:51;98285.06;;;26.50;44.14
78800;BME280;68148;55.328;86.106;2023-07-16T06:59:17;98278.63;;;26.63;44.13
78800;BME280;68148;55.328;86.106;2023-07-16T07:01:43;98268.81;;;26.80;43.44
78800;BME280;68148;55.328;86.106;2023-07-16T07:04:09;98266.06;;;26.88;43.27
78800;BME280;68148;55.328;86.106;2023-07-16T07:06:34;98251.53;;;26.93;43.44
78800;BME280;68148;55.328;86.106;2023-07-16T07:09:00;98250.78;;;27.05;43.03
78800;BME280;68148;55.328;86.106;2023-07-16T07:11:26;98243.13;;;27.28;42.81
78800;BME280;68148;55.328;86.106;2023-07-16T07:13:52;98238.97;;;27.30;42.45
78800;BME280;68148;55.328;86.106;2023-07-16T07:16:18;98237.19;;;27.34;41.47
78800;BME280;68148;55.328;86.106;2023-07-16T07:18:44;98240.34;;;27.36;42.00
78800;BME280;68148;55.328;86.106;2023-07-16T07:21:09;98227.41;;;27.42;41.38
78800;BME280;68148;55.328;86.106;2023-07-16T07:23:35;98225.81;;;27.53;40.89
78800;BME280;68148;55.328;86.106;2023-07-16T07:26:01;98218.75;;;27.61;40.68
78800;BME280;68148;55.328;86.106;2023-07-16T07:28:27;98219.41;;;27.45;40.59
78800;BME280;68148;55.328;86.106;2023-07-16T07:30:53;98206.81;;;27.08;41.39
78800;BME280;68148;55.328;86.106;2023-07-16T07:33:19;98215.56;;;27.13;41.79
78800;BME280;68148;55.328;86.106;2023-07-16T07:35:44;98221.88;;;27.17;41.86
78800;BME280;68148;55.328;86.106;2023-07-16T07:38:10;98221.09;;;27.17;40.25
78800;BME280;68148;55.328;86.106;2023-07-16T07:40:36;98233.66;;;27.21;38.21
78800;BME280;68148;55.328;86.106;2023-07-16T07:43:02;98227.03;;;27.10;36.47
78800;BME280;68148;55.328;86.106;2023-07-16T07:45:28;98242.22;;;27.03;36.65
78800;BME280;68148;55.328;86.106;2023-07-16T07:47:53;98229.63;;;27.07;37.05
78800;BME280;68148;55.328;86.106;2023-07-16T07:50:19;98225.59;;;27.13;36.56
78800;BME280;68148;55.328;86.106;2023-07-16T07:52:45;98231.72;;;27.01;35.81
78800;BME280;68148;55.328;86.106;2023-07-16T07:55:11;98240.03;;;26.96;36.71
78800;BME280;68148;55.328;86.106;2023-07-16T07:57:36;98238.25;;;27.00;35.83
78800;BME280;68148;55.328;86.106;2023-07-16T08:00:03;98237.19;;;26.92;36.12
78800;BME280;68148;55.328;86.106;2023-07-16T08:02:28;98249.63;;;26.73;37.43
78800;BME280;68148;55.328;86.106;2023-07-16T08:04:54;98259.31;;;26.74;37.24
78800;BME280;68148;55.328;86.106;2023-07-16T08:07:23;98271.28;;;26.34;37.13
78800;BME280;68148;55.328;86.106;2023-07-16T08:09:49;98247.59;;;25.93;36.66
78800;BME280;68148;55.328;86.106;2023-07-16T08:12:15;98300.78;;;25.19;37.94
78800;BME280;68148;55.328;86.106;2023-07-16T08:14:41;98288.84;;;25.12;39.23
78800;BME280;68148;55.328;86.106;2023-07-16T08:17:07;98285.66;;;25.01;39.31
78800;BME280;68148;55.328;86.106;2023-07-16T08:19:33;98284.38;;;24.90;39.62
78800;BME280;68148;55.328;86.106;2023-07-16T08:21:59;98288.97;;;24.81;39.49
78800;BME280;68148;55.328;86.106;2023-07-16T08:24:25;98292.69;;;24.54;40.97
78800;BME280;68148;55.328;86.106;2023-07-16T08:26:51;98287.94;;;24.51;41.03
78800;BME280;68148;55.328;86.106;2023-07-16T08:29:17;98287.59;;;24.43;41.63
78800;BME280;68148;55.328;86.106;2023-07-16T08:31:43;98286.56;;;24.31;41.57
78800;BME280;68148;55.328;86.106;2023-07-16T08:34:09;98296.66;;;24.16;41.80
78800;BME280;68148;55.328;86.106;2023-07-16T08:36:36;98287.13;;;24.10;42.70
78800;BME280;68148;55.328;86.106;2023-07-16T08:39:02;98293.78;;;24.13;42.30
78800;BME280;68148;55.328;86.106;2023-07-16T08:41:28;98284.56;;;24.05;42.74
78800;BME280;68148;55.328;86.106;2023-07-16T08:43:54;98290.09;;;24.00;42.91
78800;BME280;68148;55.328;86.106;2023-07-16T08:46:20;98288.31;;;23.95;42.45
78800;BME280;68148;55.328;86.106;2023-07-16T08:48:46;98284.88;;;24.04;42.75
78800;BME280;68148;55.328;86.106;2023-07-16T08:51:14;98281.72;;;24.10;43.44
78800;BME280;68148;55.328;86.106;2023-07-16T08:53:40;98280.50;;;24.16;43.38
78800;BME280;68148;55.328;86.106;2023-07-16T08:56:06;98289.88;;;24.28;42.95
78800;BME280;68148;55.328;86.106;2023-07-16T08:58:32;98289.91;;;24.36;42.67
78800;BME280;68148;55.328;86.106;2023-07-16T09:00:59;98291.47;;;24.60;42.68
78800;BME280;68148;55.328;86.106;2023-07-16T09:03:26;98301.97;;;24.87;42.47
78800;BME280;68148;55.328;86.106;2023-07-16T09:05:53;98313.78;;;25.26;42.16
78800;BME280;68148;55.328;86.106;2023-07-16T09:08:19;98322.97;;;25.68;40.59
78800;BME280;68148;55.328;86.106;2023-07-16T09:10:53;98323.72;;;26.12;40.70
78800;BME280;68148;55.328;86.106;2023-07-16T09:13:19;98333.28;;;26.57;40.17
78800;BME280;68148;55.328;86.106;2023-07-16T09:15:51;98323.75;;;26.42;39.20
78800;BME280;68148;55.328;86.106;2023-07-16T09:18:21;98333.59;;;26.55;39.60
78800;BME280;68148;55.328;86.106;2023-07-16T09:20:48;98340.66;;;26.39;39.00
78800;BME280;68148;55.328;86.106;2023-07-16T09:23:16;98341.88;;;26.50;39.06
78800;BME280;68148;55.328;86.106;2023-07-16T09:25:43;98349.91;;;26.67;38.75
78800;BME280;68148;55.328;86.106;2023-07-16T09:28:09;98344.69;;;26.62;37.37
78800;BME280;68148;55.328;86.106;2023-07-16T09:30:34;98350.59;;;26.64;37.94
78800;BME280;68148;55.328;86.106;2023-07-16T09:33:18;98357.50;;;26.44;38.08
78800;BME280;68148;55.328;86.106;2023-07-16T09:35:44;98358.56;;;26.61;38.30
78800;BME280;68148;55.328;86.106;2023-07-16T09:38:10;98360.66;;;26.55;38.96
78800;BME280;68148;55.328;86.106;2023-07-16T09:40:37;98357.34;;;26.41;39.99
78800;BME280;68148;55.328;86.106;2023-07-16T09:43:03;98357.06;;;26.34;40.86
78800;BME280;68148;55.328;86.106;2023-07-16T09:45:29;98366.03;;;26.17;41.58
78800;BME280;68148;55.328;86.106;2023-07-16T09:47:55;98367.34;;;25.85;42.14
78800;BME280;68148;55.328;86.106;2023-07-16T09:50:29;98378.31;;;25.62;43.29
78800;BME280;68148;55.328;86.106;2023-07-16T09:52:57;98378.78;;;25.64;43.75
78800;BME280;68148;55.328;86.106;2023-07-16T09:55:24;98381.97;;;25.66;44.92
78800;BME280;68148;55.328;86.106;2023-07-16T09:57:53;98372.28;;;25.65;44.95
78800;BME280;68148;55.328;86.106;2023-07-16T10:00:21;98382.06;;;25.18;47.68
78800;BME280;68148;55.328;86.106;2023-07-16T10:02:49;98387.59;;;25.04;48.63
78800;BME280;68148;55.328;86.106;2023-07-16T10:05:24;98385.72;;;24.65;50.51
78800;BME280;68148;55.328;86.106;2023-07-16T10:08:00;98384.53;;;23.95;51.13
78800;BME280;68148;55.328;86.106;2023-07-16T10:10:45;98397.69;;;23.96;48.89
78800;BME280;68148;55.328;86.106;2023-07-16T10:13:12;98398.53;;;23.61;49.95
78800;BME280;68148;55.328;86.106;2023-07-16T10:15:39;98416.69;;;23.05;51.00
78800;BME280;68148;55.328;86.106;2023-07-16T10:18:26;98422.91;;;22.45;54.25
78800;BME280;68148;55.328;86.106;2023-07-16T10:20:53;98436.84;;;22.15;54.75
78800;BME280;68148;55.328;86.106;2023-07-16T10:23:20;98435.63;;;21.69;57.65
78800;BME280;68148;55.328;86.106;2023-07-16T10:25:59;98434.63;;;21.65;58.09
78800;BME280;68148;55.328;86.106;2023-07-16T10:28:25;98432.16;;;21.50;57.96
78800;BME280;68148;55.328;86.106;2023-07-16T10:30:51;98427.28;;;21.28;58.07
78800;BME280;68148;55.328;86.106;2023-07-16T10:33:17;98440.28;;;20.97;60.85
78800;BME280;68148;55.328;86.106;2023-07-16T10:35:45;98431.63;;;21.05;60.18
78800;BME280;68148;55.328;86.106;2023-07-16T10:38:11;98427.34;;;21.04;59.91
78800;BME280;68148;55.328;86.106;2023-07-16T10:40:44;98426.44;;;20.90;61.40
78800;BME280;68148;55.328;86.106;2023-07-16T10:43:11;98434.03;;;20.83;61.51
78800;BME280;68148;55.328;86.106;2023-07-16T10:45:37;98434.50;;;20.90;61.43
78800;BME280;68148;55.328;86.106;2023-07-16T10:48:03;98429.13;;;20.90;61.73
78800;BME280;68148;55.328;86.106;2023-07-16T10:50:32;98430.94;;;20.94;61.18
78800;BME280;68148;55.328;86.106;2023-07-16T10:52:58;98436.09;;;20.91;60.97
78800;BME280;68148;55.328;86.106;2023-07-16T10:55:25;98424.81;;;20.89;61.49
78800;BME280;68148;55.328;86.106;2023-07-16T10:57:51;98428.19;;;20.75;61.94
78800;BME280;68148;55.328;86.106;2023-07-16T11:00:18;98421.91;;;20.85;61.24
78800;BME280;68148;55.328;86.106;2023-07-16T11:02:44;98421.19;;;20.56;62.31
78800;BME280;68148;55.328;86.106;2023-07-16T11:05:11;98409.38;;;20.57;62.03
78800;BME280;68148;55.328;86.106;2023-07-16T11:07:37;98411.59;;;20.44;62.77
78800;BME280;68148;55.328;86.106;2023-07-16T11:10:03;98409.03;;;20.63;62.98
78800;BME280;68148;55.328;86.106;2023-07-16T11:12:29;98400.75;;;20.60;61.94
78800;BME280;68148;55.328;86.106;2023-07-16T11:14:56;98407.59;;;20.95;60.78
78800;BME280;68148;55.328;86.106;2023-07-16T11:17:23;98409.81;;;21.12;60.02
78800;BME280;68148;55.328;86.106;2023-07-16T11:19:52;98408.66;;;21.42;59.32
78800;BME280;68148;55.328;86.106;2023-07-16T11:22:18;98404.88;;;21.81;58.68
78800;BME280;68148;55.328;86.106;2023-07-16T11:24:47;98404.25;;;22.03;58.01
78800;BME280;68148;55.328;86.106;2023-07-16T11:27:14;98405.06;;;22.49;57.91
78800;BME280;68148;55.328;86.106;2023-07-16T11:29:44;98407.41;;;22.84;55.48
78800;BME280;68148;55.328;86.106;2023-07-16T11:32:10;98406.50;;;23.02;54.28
78800;BME280;68148;55.328;86.106;2023-07-16T11:34:36;98428.22;;;23.19;53.42
78800;BME280;68148;55.328;86.106;2023-07-16T11:37:09;98438.97;;;23.33;53.51
78800;BME280;68148;55.328;86.106;2023-07-16T11:39:36;98431.41;;;23.08;55.19
78800;BME280;68148;55.328;86.106;2023-07-16T11:42:04;98445.50;;;23.55;53.09
78800;BME280;68148;55.328;86.106;2023-07-16T11:44:34;98433.56;;;23.47;53.54
78800;BME280;68148;55.328;86.106;2023-07-16T11:47:01;98431.69;;;23.47;53.83
78800;BME280;68148;55.328;86.106;2023-07-16T11:49:27;98424.03;;;23.77;52.33
78800;BME280;68148;55.328;86.106;2023-07-16T11:51:53;98429.25;;;23.46;52.27
78800;BME280;68148;55.328;86.106;2023-07-16T11:54:18;98443.78;;;23.09;53.72
78800;BME280;68148;55.328;86.106;2023-07-16T11:56:44;98459.34;;;22.52;56.31
78800;BME280;68148;55.328;86.106;2023-07-16T11:59:10;98459.56;;;22.22;57.72
78800;BME280;68148;55.328;86.106;2023-07-16T12:01:36;98466.41;;;22.47;58.46
78800;BME280;68148;55.328;86.106;2023-07-16T12:04:02;98470.16;;;21.95;59.74
78800;BME280;68148;55.328;86.106;2023-07-16T12:06:28;98457.19;;;21.64;61.19
78800;BME280;68148;55.328;86.106;2023-07-16T12:08:54;98456.63;;;21.24;61.56
78800;BME280;68148;55.328;86.106;2023-07-16T12:11:19;98455.34;;;20.93;61.84
78800;BME280;68148;55.328;86.106;2023-07-16T12:13:45;98460.13;;;20.72;62.36
78800;BME280;68148;55.328;86.106;2023-07-16T12:16:11;98455.84;;;20.42;62.88
78800;BME280;68148;55.328;86.106;2023-07-16T12:18:37;98452.88;;;20.14;63.06
78800;BME280;68148;55.328;86.106;2023-07-16T12:21:03;98442.84;;;19.96;63.95
78800;BME280;68148;55.328;86.106;2023-07-16T12:23:29;98446.59;;;19.90;63.67
78800;BME280;68148;55.328;86.106;2023-07-16T12:25:55;98452.84;;;19.80;64.10
78800;BME280;68148;55.328;86.106;2023-07-16T12:28:21;98452.38;;;19.68;64.40
78800;BME280;68148;55.328;86.106;2023-07-16T12:30:47;98456.13;;;19.67;64.67
78800;BME280;68148;55.328;86.106;2023-07-16T12:33:13;98453.81;;;19.45;65.75
78800;BME280;68148;55.328;86.106;2023-07-16T12:35:38;98464.56;;;19.35;65.30
78800;BME280;68148;55.328;86.106;2023-07-16T12:38:04;98456.75;;;19.43;65.50
78800;BME280;68148;55.328;86.106;2023-07-16T12:40:30;98444.00;;;19.25;66.92
78800;BME280;68148;55.328;86.106;2023-07-16T12:42:56;98460.75;;;19.46;65.80
78800;BME280;68148;55.328;86.106;2023-07-16T12:45:22;98465.88;;;19.42;66.06
78800;BME280;68148;55.328;86.106;2023-07-16T12:47:47;98456.50;;;19.40;66.26
78800;BME280;68148;55.328;86.106;2023-07-16T12:50:13;98466.78;;;19.12;67.84